<?xml version="1.0" encoding="UTF-8" standalone="no" ?>
<gpx xmlns="http://www.topografix.com/GPX/1/1" xmlns:xsi="http://www.w3.org/2001/XMLSchema-instance" xsi:schemaLocation="http://www.topografix.com/GPX/1/1 http://www.topografix.com/GPX/1/1/gpx.xsd" version="1.1" creator="VisuGPX - https://www.visugpx.com">
  <metadata>
    <name>2015-01-28 Ski de fond à la Ruchère</name>
    <desc><![CDATA[Beau temps, neige ramollissante]]></desc>
  </metadata>
  <trk>
    <name><![CDATA[2015-01-28_La Ruchère Ski de fond]]></name>
    <trkseg>
      <trkpt lat="45.40868" lon="5.79684">
        <ele>1152</ele>
        <time>2015-01-28T12:59:53Z</time>
      </trkpt>
      <trkpt lat="45.40865" lon="5.79685">
        <ele>1152</ele>
        <time>2015-01-28T13:00:00Z</time>
      </trkpt>
      <trkpt lat="45.40862" lon="5.79686">
        <ele>1152</ele>
        <time>2015-01-28T13:00:07Z</time>
      </trkpt>
      <trkpt lat="45.4086" lon="5.79692">
        <ele>1155.188730686</ele>
        <time>2015-01-28T13:00:33Z</time>
      </trkpt>
      <trkpt lat="45.40861" lon="5.79692">
        <ele>1155.188730686</ele>
        <time>2015-01-28T13:00:59Z</time>
      </trkpt>
      <trkpt lat="45.40861" lon="5.79692">
        <ele>1155.188730686</ele>
        <time>2015-01-28T13:01:09Z</time>
      </trkpt>
      <trkpt lat="45.40858" lon="5.79676">
        <ele>1161.983607513</ele>
        <time>2015-01-28T13:01:14Z</time>
      </trkpt>
      <trkpt lat="45.40855" lon="5.79671">
        <ele>1161.983607513</ele>
        <time>2015-01-28T13:01:21Z</time>
      </trkpt>
      <trkpt lat="45.40849" lon="5.79657">
        <ele>1169.150415809</ele>
        <time>2015-01-28T13:01:31Z</time>
      </trkpt>
      <trkpt lat="45.40826" lon="5.79637">
        <ele>1176.854277361</ele>
        <time>2015-01-28T13:01:33Z</time>
      </trkpt>
      <trkpt lat="45.40794" lon="5.79603">
        <ele>1184.871754866</ele>
        <time>2015-01-28T13:01:53Z</time>
      </trkpt>
      <trkpt lat="45.40784" lon="5.79591">
        <ele>1191.555687816</ele>
        <time>2015-01-28T13:02:01Z</time>
      </trkpt>
      <trkpt lat="45.40783" lon="5.79589">
        <ele>1191.555687816</ele>
        <time>2015-01-28T13:02:04Z</time>
      </trkpt>
      <trkpt lat="45.4078" lon="5.79583">
        <ele>1191.555687816</ele>
        <time>2015-01-28T13:02:08Z</time>
      </trkpt>
      <trkpt lat="45.40774" lon="5.79574">
        <ele>1197.458879822</ele>
        <time>2015-01-28T13:02:14Z</time>
      </trkpt>
      <trkpt lat="45.4077" lon="5.7957">
        <ele>1197.458879822</ele>
        <time>2015-01-28T13:02:19Z</time>
      </trkpt>
      <trkpt lat="45.40759" lon="5.79561">
        <ele>1203.047529362</ele>
        <time>2015-01-28T13:02:24Z</time>
      </trkpt>
      <trkpt lat="45.40753" lon="5.79555">
        <ele>1203.047529362</ele>
        <time>2015-01-28T13:02:29Z</time>
      </trkpt>
      <trkpt lat="45.40753" lon="5.79553">
        <ele>1203.047529362</ele>
        <time>2015-01-28T13:02:35Z</time>
      </trkpt>
      <trkpt lat="45.40739" lon="5.79529">
        <ele>1209.379876047</ele>
        <time>2015-01-28T13:02:46Z</time>
      </trkpt>
      <trkpt lat="45.40739" lon="5.79528">
        <ele>1209.379876047</ele>
        <time>2015-01-28T13:02:50Z</time>
      </trkpt>
      <trkpt lat="45.40734" lon="5.79518">
        <ele>1214.784435226</ele>
        <time>2015-01-28T13:02:53Z</time>
      </trkpt>
      <trkpt lat="45.40723" lon="5.79513">
        <ele>1218.985775358</ele>
        <time>2015-01-28T13:03:01Z</time>
      </trkpt>
      <trkpt lat="45.40719" lon="5.79512">
        <ele>1218.985775358</ele>
        <time>2015-01-28T13:03:03Z</time>
      </trkpt>
      <trkpt lat="45.40712" lon="5.79503">
        <ele>1223.596240371</ele>
        <time>2015-01-28T13:03:09Z</time>
      </trkpt>
      <trkpt lat="45.40708" lon="5.79498">
        <ele>1223.596240371</ele>
        <time>2015-01-28T13:03:14Z</time>
      </trkpt>
      <trkpt lat="45.40702" lon="5.79494">
        <ele>1226.780690045</ele>
        <time>2015-01-28T13:03:19Z</time>
      </trkpt>
      <trkpt lat="45.40698" lon="5.79483">
        <ele>1230.214127658</ele>
        <time>2015-01-28T13:03:24Z</time>
      </trkpt>
      <trkpt lat="45.40695" lon="5.79475">
        <ele>1230.214127658</ele>
        <time>2015-01-28T13:03:29Z</time>
      </trkpt>
      <trkpt lat="45.40693" lon="5.79468">
        <ele>1233.596052958</ele>
        <time>2015-01-28T13:03:33Z</time>
      </trkpt>
      <trkpt lat="45.40692" lon="5.79457">
        <ele>1233.596052958</ele>
        <time>2015-01-28T13:03:40Z</time>
      </trkpt>
      <trkpt lat="45.40688" lon="5.79446">
        <ele>1236.814927577</ele>
        <time>2015-01-28T13:03:43Z</time>
      </trkpt>
      <trkpt lat="45.40681" lon="5.79437">
        <ele>1238.623395467</ele>
        <time>2015-01-28T13:03:50Z</time>
      </trkpt>
      <trkpt lat="45.40681" lon="5.79415">
        <ele>1238.411252495</ele>
        <time>2015-01-28T13:04:01Z</time>
      </trkpt>
      <trkpt lat="45.40685" lon="5.79401">
        <ele>1238.044835447</ele>
        <time>2015-01-28T13:04:10Z</time>
      </trkpt>
      <trkpt lat="45.40695" lon="5.79362">
        <ele>1238.522868475</ele>
        <time>2015-01-28T13:04:38Z</time>
      </trkpt>
      <trkpt lat="45.40689" lon="5.79304">
        <ele>1239.002005173</ele>
        <time>2015-01-28T13:04:54Z</time>
      </trkpt>
      <trkpt lat="45.40684" lon="5.79296">
        <ele>1239.002005173</ele>
        <time>2015-01-28T13:05:00Z</time>
      </trkpt>
      <trkpt lat="45.40679" lon="5.79288">
        <ele>1238.740134367</ele>
        <time>2015-01-28T13:05:04Z</time>
      </trkpt>
      <trkpt lat="45.40674" lon="5.79276">
        <ele>1238.585645282</ele>
        <time>2015-01-28T13:05:09Z</time>
      </trkpt>
      <trkpt lat="45.40673" lon="5.79275">
        <ele>1238.585645282</ele>
        <time>2015-01-28T13:05:15Z</time>
      </trkpt>
      <trkpt lat="45.40652" lon="5.79228">
        <ele>1239.274536781</ele>
        <time>2015-01-28T13:05:34Z</time>
      </trkpt>
      <trkpt lat="45.4065" lon="5.79222">
        <ele>1239.274536781</ele>
        <time>2015-01-28T13:05:43Z</time>
      </trkpt>
      <trkpt lat="45.40644" lon="5.79209">
        <ele>1240.282174481</ele>
        <time>2015-01-28T13:05:53Z</time>
      </trkpt>
      <trkpt lat="45.40641" lon="5.79188">
        <ele>1241.288432965</ele>
        <time>2015-01-28T13:06:00Z</time>
      </trkpt>
      <trkpt lat="45.406" lon="5.79133">
        <ele>1241.153577385</ele>
        <time>2015-01-28T13:06:20Z</time>
      </trkpt>
      <trkpt lat="45.40551" lon="5.79099">
        <ele>1240.83354074</ele>
        <time>2015-01-28T13:06:38Z</time>
      </trkpt>
      <trkpt lat="45.405" lon="5.79091">
        <ele>1240.903815885</ele>
        <time>2015-01-28T13:07:00Z</time>
      </trkpt>
      <trkpt lat="45.4043" lon="5.79057">
        <ele>1242.164798053</ele>
        <time>2015-01-28T13:07:23Z</time>
      </trkpt>
      <trkpt lat="45.40345" lon="5.79057">
        <ele>1241.181816459</ele>
        <time>2015-01-28T13:07:55Z</time>
      </trkpt>
      <trkpt lat="45.40308" lon="5.79056">
        <ele>1239.237736791</ele>
        <time>2015-01-28T13:08:00Z</time>
      </trkpt>
      <trkpt lat="45.4029" lon="5.79045">
        <ele>1236.819778634</ele>
        <time>2015-01-28T13:08:10Z</time>
      </trkpt>
      <trkpt lat="45.4026" lon="5.79034">
        <ele>1235.49355146</ele>
        <time>2015-01-28T13:08:13Z</time>
      </trkpt>
      <trkpt lat="45.40256" lon="5.79031">
        <ele>1235.49355146</ele>
        <time>2015-01-28T13:08:23Z</time>
      </trkpt>
      <trkpt lat="45.40203" lon="5.78988">
        <ele>1234.355843353</ele>
        <time>2015-01-28T13:08:39Z</time>
      </trkpt>
      <trkpt lat="45.40197" lon="5.78981">
        <ele>1234.355843353</ele>
        <time>2015-01-28T13:08:46Z</time>
      </trkpt>
      <trkpt lat="45.40169" lon="5.78933">
        <ele>1233.822398182</ele>
        <time>2015-01-28T13:08:58Z</time>
      </trkpt>
      <trkpt lat="45.40165" lon="5.78929">
        <ele>1233.822398182</ele>
        <time>2015-01-28T13:09:05Z</time>
      </trkpt>
      <trkpt lat="45.40108" lon="5.78787">
        <ele>1234.005845255</ele>
        <time>2015-01-28T13:10:04Z</time>
      </trkpt>
      <trkpt lat="45.40104" lon="5.78786">
        <ele>1234.005845255</ele>
        <time>2015-01-28T13:10:09Z</time>
      </trkpt>
      <trkpt lat="45.40099" lon="5.78775">
        <ele>1234.446669169</ele>
        <time>2015-01-28T13:10:14Z</time>
      </trkpt>
      <trkpt lat="45.40089" lon="5.78765">
        <ele>1234.281057241</ele>
        <time>2015-01-28T13:10:19Z</time>
      </trkpt>
      <trkpt lat="45.40081" lon="5.78748">
        <ele>1234.702463884</ele>
        <time>2015-01-28T13:10:25Z</time>
      </trkpt>
      <trkpt lat="45.40071" lon="5.78736">
        <ele>1234.961983159</ele>
        <time>2015-01-28T13:10:29Z</time>
      </trkpt>
      <trkpt lat="45.40066" lon="5.78725">
        <ele>1234.931462539</ele>
        <time>2015-01-28T13:10:35Z</time>
      </trkpt>
      <trkpt lat="45.40053" lon="5.78715">
        <ele>1234.930420197</ele>
        <time>2015-01-28T13:10:39Z</time>
      </trkpt>
      <trkpt lat="45.40042" lon="5.78699">
        <ele>1234.228669075</ele>
        <time>2015-01-28T13:10:44Z</time>
      </trkpt>
      <trkpt lat="45.40035" lon="5.78689">
        <ele>1234.067273578</ele>
        <time>2015-01-28T13:10:49Z</time>
      </trkpt>
      <trkpt lat="45.40039" lon="5.78687">
        <ele>1234.067273578</ele>
        <time>2015-01-28T13:10:55Z</time>
      </trkpt>
      <trkpt lat="45.40022" lon="5.78663">
        <ele>1234.719150163</ele>
        <time>2015-01-28T13:10:58Z</time>
      </trkpt>
      <trkpt lat="45.40017" lon="5.78658">
        <ele>1234.719150163</ele>
        <time>2015-01-28T13:11:04Z</time>
      </trkpt>
      <trkpt lat="45.40005" lon="5.78648">
        <ele>1235.986511649</ele>
        <time>2015-01-28T13:11:09Z</time>
      </trkpt>
      <trkpt lat="45.40004" lon="5.78631">
        <ele>1237.0791272</ele>
        <time>2015-01-28T13:11:14Z</time>
      </trkpt>
      <trkpt lat="45.39992" lon="5.78614">
        <ele>1237.10826062</ele>
        <time>2015-01-28T13:11:20Z</time>
      </trkpt>
      <trkpt lat="45.39987" lon="5.7861">
        <ele>1237.10826062</ele>
        <time>2015-01-28T13:11:24Z</time>
      </trkpt>
      <trkpt lat="45.39974" lon="5.78604">
        <ele>1238.11504514</ele>
        <time>2015-01-28T13:11:29Z</time>
      </trkpt>
      <trkpt lat="45.39973" lon="5.786">
        <ele>1238.11504514</ele>
        <time>2015-01-28T13:11:34Z</time>
      </trkpt>
      <trkpt lat="45.39948" lon="5.78585">
        <ele>1238.219279656</ele>
        <time>2015-01-28T13:11:39Z</time>
      </trkpt>
      <trkpt lat="45.39916" lon="5.78534">
        <ele>1238.097345731</ele>
        <time>2015-01-28T13:12:05Z</time>
      </trkpt>
      <trkpt lat="45.39873" lon="5.78288">
        <ele>1241.999255214</ele>
        <time>2015-01-28T13:13:43Z</time>
      </trkpt>
      <trkpt lat="45.39864" lon="5.78267">
        <ele>1245.831193766</ele>
        <time>2015-01-28T13:13:51Z</time>
      </trkpt>
      <trkpt lat="45.39821" lon="5.78187">
        <ele>1248.835423865</ele>
        <time>2015-01-28T13:14:43Z</time>
      </trkpt>
      <trkpt lat="45.39753" lon="5.78145">
        <ele>1251.824372521</ele>
        <time>2015-01-28T13:15:04Z</time>
      </trkpt>
      <trkpt lat="45.39743" lon="5.78143">
        <ele>1254.342834831</ele>
        <time>2015-01-28T13:15:09Z</time>
      </trkpt>
      <trkpt lat="45.39716" lon="5.78133">
        <ele>1256.725092703</ele>
        <time>2015-01-28T13:15:14Z</time>
      </trkpt>
      <trkpt lat="45.39698" lon="5.78119">
        <ele>1258.530172872</ele>
        <time>2015-01-28T13:15:19Z</time>
      </trkpt>
      <trkpt lat="45.39693" lon="5.78094">
        <ele>1258.012433883</ele>
        <time>2015-01-28T13:15:24Z</time>
      </trkpt>
      <trkpt lat="45.39694" lon="5.78061">
        <ele>1256.261413966</ele>
        <time>2015-01-28T13:15:29Z</time>
      </trkpt>
      <trkpt lat="45.39708" lon="5.78009">
        <ele>1254.278589229</ele>
        <time>2015-01-28T13:15:33Z</time>
      </trkpt>
      <trkpt lat="45.3971" lon="5.77991">
        <ele>1252.240487056</ele>
        <time>2015-01-28T13:15:41Z</time>
      </trkpt>
      <trkpt lat="45.3951" lon="5.77905">
        <ele>1249.273845385</ele>
        <time>2015-01-28T13:17:39Z</time>
      </trkpt>
      <trkpt lat="45.39461" lon="5.77962">
        <ele>1247.235187876</ele>
        <time>2015-01-28T13:18:06Z</time>
      </trkpt>
      <trkpt lat="45.39389" lon="5.7802">
        <ele>1247.381973084</ele>
        <time>2015-01-28T13:18:42Z</time>
      </trkpt>
      <trkpt lat="45.39385" lon="5.78014">
        <ele>1247.381973084</ele>
        <time>2015-01-28T13:18:44Z</time>
      </trkpt>
      <trkpt lat="45.39384" lon="5.78014">
        <ele>1247.381973084</ele>
        <time>2015-01-28T13:18:51Z</time>
      </trkpt>
      <trkpt lat="45.39376" lon="5.78011">
        <ele>1249.100317066</ele>
        <time>2015-01-28T13:19:04Z</time>
      </trkpt>
      <trkpt lat="45.3933" lon="5.78079">
        <ele>1249.919270546</ele>
        <time>2015-01-28T13:20:06Z</time>
      </trkpt>
      <trkpt lat="45.39354" lon="5.78231">
        <ele>1253.71484375</ele>
      </trkpt>
      <trkpt lat="45.39273" lon="5.78285">
        <ele>1253.25</ele>
      </trkpt>
      <trkpt lat="45.39167" lon="5.78185">
        <ele>1253.273560251</ele>
        <time>2015-01-28T13:23:05Z</time>
      </trkpt>
      <trkpt lat="45.39166" lon="5.78181">
        <ele>1253.273560251</ele>
        <time>2015-01-28T13:23:09Z</time>
      </trkpt>
      <trkpt lat="45.39154" lon="5.78177">
        <ele>1256.038491833</ele>
        <time>2015-01-28T13:23:14Z</time>
      </trkpt>
      <trkpt lat="45.39144" lon="5.78178">
        <ele>1258.402049512</ele>
        <time>2015-01-28T13:23:19Z</time>
      </trkpt>
      <trkpt lat="45.39139" lon="5.78178">
        <ele>1258.402049512</ele>
        <time>2015-01-28T13:23:24Z</time>
      </trkpt>
      <trkpt lat="45.39129" lon="5.78179">
        <ele>1260.101592787</ele>
        <time>2015-01-28T13:23:29Z</time>
      </trkpt>
      <trkpt lat="45.39125" lon="5.78194">
        <ele>1261.622789839</ele>
        <time>2015-01-28T13:23:34Z</time>
      </trkpt>
      <trkpt lat="45.39132" lon="5.78233">
        <ele>1262.83308615</ele>
        <time>2015-01-28T13:23:39Z</time>
      </trkpt>
      <trkpt lat="45.39124" lon="5.78359">
        <ele>1263.176283622</ele>
        <time>2015-01-28T13:24:11Z</time>
      </trkpt>
      <trkpt lat="45.39132" lon="5.78659">
        <ele>1265.180692549</ele>
        <time>2015-01-28T13:25:55Z</time>
      </trkpt>
      <trkpt lat="45.39261" lon="5.78741">
        <ele>1266.837268706</ele>
        <time>2015-01-28T13:26:32Z</time>
      </trkpt>
      <trkpt lat="45.39333" lon="5.78743">
        <ele>1267.881408802</ele>
        <time>2015-01-28T13:26:54Z</time>
      </trkpt>
      <trkpt lat="45.39354" lon="5.78731">
        <ele>1268.936564842</ele>
        <time>2015-01-28T13:27:00Z</time>
      </trkpt>
      <trkpt lat="45.39368" lon="5.78735">
        <ele>1270.001472068</ele>
        <time>2015-01-28T13:27:04Z</time>
      </trkpt>
      <trkpt lat="45.39454" lon="5.78736">
        <ele>1271.363515992</ele>
        <time>2015-01-28T13:27:50Z</time>
      </trkpt>
      <trkpt lat="45.39457" lon="5.78734">
        <ele>1271.363515992</ele>
        <time>2015-01-28T13:28:00Z</time>
      </trkpt>
      <trkpt lat="45.39521" lon="5.78504">
        <ele>1273.143539571</ele>
        <time>2015-01-28T13:29:10Z</time>
      </trkpt>
      <trkpt lat="45.39643" lon="5.78377">
        <ele>1272.135118792</ele>
        <time>2015-01-28T13:29:23Z</time>
      </trkpt>
      <trkpt lat="45.39796" lon="5.78369">
        <ele>1268.693893128</ele>
        <time>2015-01-28T13:29:58Z</time>
      </trkpt>
      <trkpt lat="45.39824" lon="5.78388">
        <ele>1265.31818658</ele>
        <time>2015-01-28T13:30:07Z</time>
      </trkpt>
      <trkpt lat="45.39861" lon="5.78322">
        <ele>1262.879747676</ele>
        <time>2015-01-28T13:30:29Z</time>
      </trkpt>
      <trkpt lat="45.39854" lon="5.78261">
        <ele>1263.192805022</ele>
        <time>2015-01-28T13:30:49Z</time>
      </trkpt>
      <trkpt lat="45.39838" lon="5.78223">
        <ele>1263.028642137</ele>
        <time>2015-01-28T13:31:05Z</time>
      </trkpt>
      <trkpt lat="45.39834" lon="5.78215">
        <ele>1263.028642137</ele>
        <time>2015-01-28T13:31:09Z</time>
      </trkpt>
      <trkpt lat="45.39819" lon="5.782">
        <ele>1263.145748946</ele>
        <time>2015-01-28T13:31:14Z</time>
      </trkpt>
      <trkpt lat="45.39816" lon="5.78191">
        <ele>1263.145748946</ele>
        <time>2015-01-28T13:31:24Z</time>
      </trkpt>
      <trkpt lat="45.39753" lon="5.78147">
        <ele>1261.650695239</ele>
        <time>2015-01-28T13:31:48Z</time>
      </trkpt>
      <trkpt lat="45.39749" lon="5.78144">
        <ele>1261.650695239</ele>
        <time>2015-01-28T13:31:53Z</time>
      </trkpt>
      <trkpt lat="45.39748" lon="5.78143">
        <ele>1261.650695239</ele>
        <time>2015-01-28T13:32:00Z</time>
      </trkpt>
      <trkpt lat="45.39746" lon="5.78141">
        <ele>1261.650695239</ele>
        <time>2015-01-28T13:32:05Z</time>
      </trkpt>
      <trkpt lat="45.39742" lon="5.78136">
        <ele>1260.542371163</ele>
        <time>2015-01-28T13:32:24Z</time>
      </trkpt>
      <trkpt lat="45.39742" lon="5.78136">
        <ele>1260.542371163</ele>
        <time>2015-01-28T13:32:48Z</time>
      </trkpt>
      <trkpt lat="45.39742" lon="5.78136">
        <ele>1260.542371163</ele>
        <time>2015-01-28T13:33:00Z</time>
      </trkpt>
      <trkpt lat="45.39681" lon="5.77868">
        <ele>1259.508869973</ele>
        <time>2015-01-28T13:33:53Z</time>
      </trkpt>
      <trkpt lat="45.39677" lon="5.77859">
        <ele>1259.508869973</ele>
        <time>2015-01-28T13:34:00Z</time>
      </trkpt>
      <trkpt lat="45.39684" lon="5.77825">
        <ele>1259.414522664</ele>
        <time>2015-01-28T13:34:10Z</time>
      </trkpt>
      <trkpt lat="45.39567" lon="5.77807">
        <ele>1256.73096324</ele>
        <time>2015-01-28T13:34:54Z</time>
      </trkpt>
      <trkpt lat="45.39551" lon="5.77806">
        <ele>1254.253238528</ele>
        <time>2015-01-28T13:35:00Z</time>
      </trkpt>
      <trkpt lat="45.39553" lon="5.77805">
        <ele>1254.253238528</ele>
        <time>2015-01-28T13:35:04Z</time>
      </trkpt>
      <trkpt lat="45.39547" lon="5.77805">
        <ele>1254.253238528</ele>
        <time>2015-01-28T13:35:09Z</time>
      </trkpt>
      <trkpt lat="45.39535" lon="5.77813">
        <ele>1252.839896381</ele>
        <time>2015-01-28T13:35:14Z</time>
      </trkpt>
      <trkpt lat="45.39529" lon="5.77824">
        <ele>1251.985184864</ele>
        <time>2015-01-28T13:35:19Z</time>
      </trkpt>
      <trkpt lat="45.39516" lon="5.77843">
        <ele>1251.362969848</ele>
        <time>2015-01-28T13:35:23Z</time>
      </trkpt>
      <trkpt lat="45.39513" lon="5.77861">
        <ele>1250.093276751</ele>
        <time>2015-01-28T13:35:32Z</time>
      </trkpt>
      <trkpt lat="45.39512" lon="5.7791">
        <ele>1248.949157647</ele>
        <time>2015-01-28T13:35:40Z</time>
      </trkpt>
      <trkpt lat="45.39508" lon="5.77919">
        <ele>1248.949157647</ele>
        <time>2015-01-28T13:35:43Z</time>
      </trkpt>
      <trkpt lat="45.39504" lon="5.77927">
        <ele>1248.502093859</ele>
        <time>2015-01-28T13:35:49Z</time>
      </trkpt>
      <trkpt lat="45.39492" lon="5.77939">
        <ele>1247.836995478</ele>
        <time>2015-01-28T13:35:55Z</time>
      </trkpt>
      <trkpt lat="45.3949" lon="5.7794">
        <ele>1247.836995478</ele>
        <time>2015-01-28T13:36:00Z</time>
      </trkpt>
      <trkpt lat="45.39379" lon="5.78018">
        <ele>1248.702861369</ele>
        <time>2015-01-28T13:36:54Z</time>
      </trkpt>
      <trkpt lat="45.39378" lon="5.78016">
        <ele>1248.702861369</ele>
        <time>2015-01-28T13:37:00Z</time>
      </trkpt>
      <trkpt lat="45.39332" lon="5.7804">
        <ele>1251.417395908</ele>
        <time>2015-01-28T13:38:00Z</time>
      </trkpt>
      <trkpt lat="45.39318" lon="5.78282">
        <ele>1254.394587202</ele>
        <time>2015-01-28T13:38:59Z</time>
      </trkpt>
      <trkpt lat="45.39306" lon="5.78293">
        <ele>1257.02972955</ele>
        <time>2015-01-28T13:39:10Z</time>
      </trkpt>
      <trkpt lat="45.39189" lon="5.78294">
        <ele>1257.465616223</ele>
        <time>2015-01-28T13:40:00Z</time>
      </trkpt>
      <trkpt lat="45.39179" lon="5.78201">
        <ele>1259.612218419</ele>
        <time>2015-01-28T13:41:00Z</time>
      </trkpt>
      <trkpt lat="45.39178" lon="5.7819">
        <ele>1259.612218419</ele>
        <time>2015-01-28T13:41:06Z</time>
      </trkpt>
      <trkpt lat="45.39143" lon="5.78285">
        <ele>1264.346771476</ele>
        <time>2015-01-28T13:42:00Z</time>
      </trkpt>
      <trkpt lat="45.39127" lon="5.78313">
        <ele>1266.850991179</ele>
        <time>2015-01-28T13:42:04Z</time>
      </trkpt>
      <trkpt lat="45.39129" lon="5.78359">
        <ele>1268.723790774</ele>
        <time>2015-01-28T13:42:09Z</time>
      </trkpt>
      <trkpt lat="45.39131" lon="5.78365">
        <ele>1268.723790774</ele>
        <time>2015-01-28T13:42:15Z</time>
      </trkpt>
      <trkpt lat="45.39146" lon="5.78386">
        <ele>1271.880651848</ele>
        <time>2015-01-28T13:42:18Z</time>
      </trkpt>
      <trkpt lat="45.39174" lon="5.78471">
        <ele>1272.46965106</ele>
        <time>2015-01-28T13:43:00Z</time>
      </trkpt>
      <trkpt lat="45.39154" lon="5.78586">
        <ele>1268.97265625</ele>
      </trkpt>
      <trkpt lat="45.39258" lon="5.78716">
        <ele>1281.33203125</ele>
      </trkpt>
      <trkpt lat="45.39342" lon="5.78744">
        <ele>1272.696538403</ele>
        <time>2015-01-28T13:44:59Z</time>
      </trkpt>
      <trkpt lat="45.39354" lon="5.78742">
        <ele>1273.019936323</ele>
        <time>2015-01-28T13:45:04Z</time>
      </trkpt>
      <trkpt lat="45.39427" lon="5.7875">
        <ele>1274.44112269</ele>
        <time>2015-01-28T13:45:38Z</time>
      </trkpt>
      <trkpt lat="45.39432" lon="5.78749">
        <ele>1274.44112269</ele>
        <time>2015-01-28T13:45:45Z</time>
      </trkpt>
      <trkpt lat="45.39461" lon="5.78693">
        <ele>1279.182005354</ele>
        <time>2015-01-28T13:46:23Z</time>
      </trkpt>
      <trkpt lat="45.39467" lon="5.7862">
        <ele>1283.526054908</ele>
        <time>2015-01-28T13:46:54Z</time>
      </trkpt>
      <trkpt lat="45.39487" lon="5.78552">
        <ele>1286.049447461</ele>
        <time>2015-01-28T13:47:09Z</time>
      </trkpt>
      <trkpt lat="45.39578" lon="5.78435">
        <ele>1288.032748188</ele>
        <time>2015-01-28T13:47:23Z</time>
      </trkpt>
      <trkpt lat="45.39689" lon="5.78325">
        <ele>1286.772453803</ele>
        <time>2015-01-28T13:47:51Z</time>
      </trkpt>
      <trkpt lat="45.39751" lon="5.78307">
        <ele>1285.682294437</ele>
        <time>2015-01-28T13:48:00Z</time>
      </trkpt>
      <trkpt lat="45.3977" lon="5.78348">
        <ele>1284.609740251</ele>
        <time>2015-01-28T13:48:18Z</time>
      </trkpt>
      <trkpt lat="45.39861" lon="5.78368">
        <ele>1282.981176713</ele>
        <time>2015-01-28T13:48:23Z</time>
      </trkpt>
      <trkpt lat="45.39861" lon="5.78369">
        <ele>1282.981176713</ele>
        <time>2015-01-28T13:48:33Z</time>
      </trkpt>
      <trkpt lat="45.39861" lon="5.78315">
        <ele>1281.996226852</ele>
        <time>2015-01-28T13:48:40Z</time>
      </trkpt>
      <trkpt lat="45.39846" lon="5.7825">
        <ele>1279.738138545</ele>
        <time>2015-01-28T13:49:05Z</time>
      </trkpt>
      <trkpt lat="45.39755" lon="5.78147">
        <ele>1278.902231431</ele>
        <time>2015-01-28T13:50:06Z</time>
      </trkpt>
      <trkpt lat="45.39753" lon="5.78144">
        <ele>1278.902231431</ele>
        <time>2015-01-28T13:50:08Z</time>
      </trkpt>
      <trkpt lat="45.39753" lon="5.78144">
        <ele>1278.902231431</ele>
        <time>2015-01-28T13:50:13Z</time>
      </trkpt>
      <trkpt lat="45.39745" lon="5.78144">
        <ele>1277.658349021</ele>
        <time>2015-01-28T13:50:43Z</time>
      </trkpt>
      <trkpt lat="45.39744" lon="5.78141">
        <ele>1277.658349021</ele>
        <time>2015-01-28T13:51:00Z</time>
      </trkpt>
      <trkpt lat="45.39744" lon="5.78141">
        <ele>1277.658349021</ele>
        <time>2015-01-28T13:51:07Z</time>
      </trkpt>
      <trkpt lat="45.39683" lon="5.7782">
        <ele>1273.30317782</ele>
        <time>2015-01-28T13:52:08Z</time>
      </trkpt>
      <trkpt lat="45.39676" lon="5.77797">
        <ele>1269.681704247</ele>
        <time>2015-01-28T13:52:14Z</time>
      </trkpt>
      <trkpt lat="45.39621" lon="5.77825">
        <ele>1265.454472491</ele>
        <time>2015-01-28T13:52:40Z</time>
      </trkpt>
      <trkpt lat="45.39555" lon="5.77806">
        <ele>1262.696644928</ele>
        <time>2015-01-28T13:52:58Z</time>
      </trkpt>
      <trkpt lat="45.39553" lon="5.77805">
        <ele>1262.696644928</ele>
        <time>2015-01-28T13:53:09Z</time>
      </trkpt>
      <trkpt lat="45.39538" lon="5.77812">
        <ele>1260.58857487</ele>
        <time>2015-01-28T13:53:18Z</time>
      </trkpt>
      <trkpt lat="45.39491" lon="5.77955">
        <ele>1258.657108357</ele>
        <time>2015-01-28T13:54:00Z</time>
      </trkpt>
      <trkpt lat="45.39475" lon="5.77969">
        <ele>1257.616117313</ele>
        <time>2015-01-28T13:54:07Z</time>
      </trkpt>
      <trkpt lat="45.39362" lon="5.78013">
        <ele>1258.700847668</ele>
        <time>2015-01-28T13:55:10Z</time>
      </trkpt>
      <trkpt lat="45.3934" lon="5.78023">
        <ele>1260.023332006</ele>
        <time>2015-01-28T13:55:14Z</time>
      </trkpt>
      <trkpt lat="45.39337" lon="5.78025">
        <ele>1260.023332006</ele>
        <time>2015-01-28T13:55:21Z</time>
      </trkpt>
      <trkpt lat="45.39345" lon="5.78103">
        <ele>1261.41873562</ele>
        <time>2015-01-28T13:56:04Z</time>
      </trkpt>
      <trkpt lat="45.39364" lon="5.78157">
        <ele>1263.16635618</ele>
        <time>2015-01-28T13:56:14Z</time>
      </trkpt>
      <trkpt lat="45.39277" lon="5.78307">
        <ele>1262.497497606</ele>
        <time>2015-01-28T13:56:58Z</time>
      </trkpt>
      <trkpt lat="45.39168" lon="5.7817">
        <ele>1266.0768519</ele>
        <time>2015-01-28T13:59:05Z</time>
      </trkpt>
      <trkpt lat="45.3915" lon="5.78172">
        <ele>1268.826650637</ele>
        <time>2015-01-28T13:59:15Z</time>
      </trkpt>
      <trkpt lat="45.39142" lon="5.78179">
        <ele>1271.95310869</ele>
        <time>2015-01-28T13:59:16Z</time>
      </trkpt>
      <trkpt lat="45.39138" lon="5.78179">
        <ele>1271.95310869</ele>
        <time>2015-01-28T13:59:18Z</time>
      </trkpt>
      <trkpt lat="45.39157" lon="5.78401">
        <ele>1269.799367292</ele>
        <time>2015-01-28T14:00:00Z</time>
      </trkpt>
      <trkpt lat="45.39098" lon="5.78563">
        <ele>1271.982750433</ele>
        <time>2015-01-28T14:01:18Z</time>
      </trkpt>
      <trkpt lat="45.39217" lon="5.7872">
        <ele>1269.964039017</ele>
        <time>2015-01-28T14:02:04Z</time>
      </trkpt>
      <trkpt lat="45.39275" lon="5.78739">
        <ele>1270.398702495</ele>
        <time>2015-01-28T14:02:25Z</time>
      </trkpt>
      <trkpt lat="45.39368" lon="5.78738">
        <ele>1271.37598295</ele>
        <time>2015-01-28T14:02:53Z</time>
      </trkpt>
      <trkpt lat="45.3939" lon="5.78742">
        <ele>1272.565121731</ele>
        <time>2015-01-28T14:03:03Z</time>
      </trkpt>
      <trkpt lat="45.39393" lon="5.78742">
        <ele>1272.565121731</ele>
        <time>2015-01-28T14:03:10Z</time>
      </trkpt>
      <trkpt lat="45.39398" lon="5.78744">
        <ele>1272.565121731</ele>
        <time>2015-01-28T14:03:18Z</time>
      </trkpt>
      <trkpt lat="45.39461" lon="5.7873">
        <ele>1273.947303765</ele>
        <time>2015-01-28T14:03:40Z</time>
      </trkpt>
      <trkpt lat="45.39461" lon="5.78722">
        <ele>1273.947303765</ele>
        <time>2015-01-28T14:03:49Z</time>
      </trkpt>
      <trkpt lat="45.39463" lon="5.78701">
        <ele>1277.810409708</ele>
        <time>2015-01-28T14:04:05Z</time>
      </trkpt>
      <trkpt lat="45.39463" lon="5.78645">
        <ele>1281.079202946</ele>
        <time>2015-01-28T14:04:30Z</time>
      </trkpt>
      <trkpt lat="45.39667" lon="5.78366">
        <ele>1280.906086644</ele>
        <time>2015-01-28T14:05:23Z</time>
      </trkpt>
      <trkpt lat="45.39757" lon="5.78337">
        <ele>1279.706371013</ele>
        <time>2015-01-28T14:05:43Z</time>
      </trkpt>
      <trkpt lat="45.3976" lon="5.78341">
        <ele>1279.706371013</ele>
        <time>2015-01-28T14:05:51Z</time>
      </trkpt>
      <trkpt lat="45.39825" lon="5.7839">
        <ele>1278.712072051</ele>
        <time>2015-01-28T14:05:59Z</time>
      </trkpt>
      <trkpt lat="45.39832" lon="5.78394">
        <ele>1278.712072051</ele>
        <time>2015-01-28T14:06:04Z</time>
      </trkpt>
      <trkpt lat="45.39868" lon="5.78322">
        <ele>1275.461330691</ele>
        <time>2015-01-28T14:06:23Z</time>
      </trkpt>
      <trkpt lat="45.39862" lon="5.78313">
        <ele>1275.461330691</ele>
        <time>2015-01-28T14:06:35Z</time>
      </trkpt>
      <trkpt lat="45.39808" lon="5.7817">
        <ele>1275.317528118</ele>
        <time>2015-01-28T14:07:30Z</time>
      </trkpt>
      <trkpt lat="45.39768" lon="5.7815">
        <ele>1273.297514904</ele>
        <time>2015-01-28T14:07:38Z</time>
      </trkpt>
      <trkpt lat="45.39761" lon="5.78144">
        <ele>1273.297514904</ele>
        <time>2015-01-28T14:07:43Z</time>
      </trkpt>
      <trkpt lat="45.39758" lon="5.78144">
        <ele>1270.842241412</ele>
        <time>2015-01-28T14:07:48Z</time>
      </trkpt>
      <trkpt lat="45.39757" lon="5.78139">
        <ele>1270.842241412</ele>
        <time>2015-01-28T14:07:53Z</time>
      </trkpt>
      <trkpt lat="45.39757" lon="5.78137">
        <ele>1270.842241412</ele>
        <time>2015-01-28T14:08:00Z</time>
      </trkpt>
      <trkpt lat="45.3975" lon="5.78137">
        <ele>1268.567439411</ele>
        <time>2015-01-28T14:08:05Z</time>
      </trkpt>
      <trkpt lat="45.39746" lon="5.78135">
        <ele>1268.567439411</ele>
        <time>2015-01-28T14:08:30Z</time>
      </trkpt>
      <trkpt lat="45.39701" lon="5.78019">
        <ele>1265.890165906</ele>
        <time>2015-01-28T14:08:59Z</time>
      </trkpt>
      <trkpt lat="45.39703" lon="5.78001">
        <ele>1263.136054997</ele>
        <time>2015-01-28T14:09:07Z</time>
      </trkpt>
      <trkpt lat="45.39687" lon="5.77832">
        <ele>1260.174625545</ele>
        <time>2015-01-28T14:09:32Z</time>
      </trkpt>
      <trkpt lat="45.39664" lon="5.77799">
        <ele>1259.047158606</ele>
        <time>2015-01-28T14:09:49Z</time>
      </trkpt>
      <trkpt lat="45.39652" lon="5.77802">
        <ele>1257.892820365</ele>
        <time>2015-01-28T14:10:00Z</time>
      </trkpt>
      <trkpt lat="45.39561" lon="5.77803">
        <ele>1255.275668923</ele>
        <time>2015-01-28T14:10:29Z</time>
      </trkpt>
      <trkpt lat="45.39521" lon="5.77813">
        <ele>1252.751470377</ele>
        <time>2015-01-28T14:10:52Z</time>
      </trkpt>
      <trkpt lat="45.3951" lon="5.77839">
        <ele>1250.464309648</ele>
        <time>2015-01-28T14:10:53Z</time>
      </trkpt>
      <trkpt lat="45.39515" lon="5.77867">
        <ele>1247.826329806</ele>
        <time>2015-01-28T14:10:59Z</time>
      </trkpt>
      <trkpt lat="45.39516" lon="5.77873">
        <ele>1247.826329806</ele>
        <time>2015-01-28T14:11:04Z</time>
      </trkpt>
      <trkpt lat="45.395" lon="5.77924">
        <ele>1245.302479056</ele>
        <time>2015-01-28T14:11:23Z</time>
      </trkpt>
      <trkpt lat="45.3944" lon="5.77991">
        <ele>1242.890742999</ele>
        <time>2015-01-28T14:11:52Z</time>
      </trkpt>
      <trkpt lat="45.39414" lon="5.78024">
        <ele>1240.012334817</ele>
        <time>2015-01-28T14:11:53Z</time>
      </trkpt>
      <trkpt lat="45.39412" lon="5.78026">
        <ele>1240.012334817</ele>
        <time>2015-01-28T14:12:00Z</time>
      </trkpt>
      <trkpt lat="45.39365" lon="5.78007">
        <ele>1242.040698976</ele>
        <time>2015-01-28T14:12:52Z</time>
      </trkpt>
      <trkpt lat="45.39329" lon="5.78033">
        <ele>1243.852838271</ele>
        <time>2015-01-28T14:13:23Z</time>
      </trkpt>
      <trkpt lat="45.3933" lon="5.78035">
        <ele>1243.852838271</ele>
        <time>2015-01-28T14:13:32Z</time>
      </trkpt>
      <trkpt lat="45.39333" lon="5.78071">
        <ele>1245.314121805</ele>
        <time>2015-01-28T14:13:50Z</time>
      </trkpt>
      <trkpt lat="45.39341" lon="5.78103">
        <ele>1247.597680877</ele>
        <time>2015-01-28T14:14:10Z</time>
      </trkpt>
      <trkpt lat="45.39374" lon="5.78245">
        <ele>1249.194075287</ele>
        <time>2015-01-28T14:14:23Z</time>
      </trkpt>
      <trkpt lat="45.39308" lon="5.7829">
        <ele>1252.30939961</ele>
        <time>2015-01-28T14:14:49Z</time>
      </trkpt>
      <trkpt lat="45.39282" lon="5.78302">
        <ele>1254.083617622</ele>
        <time>2015-01-28T14:14:59Z</time>
      </trkpt>
      <trkpt lat="45.39203" lon="5.7828">
        <ele>1253.599877903</ele>
        <time>2015-01-28T14:15:43Z</time>
      </trkpt>
      <trkpt lat="45.39203" lon="5.78284">
        <ele>1253.599877903</ele>
        <time>2015-01-28T14:15:54Z</time>
      </trkpt>
      <trkpt lat="45.39179" lon="5.78209">
        <ele>1257.076477948</ele>
        <time>2015-01-28T14:16:56Z</time>
      </trkpt>
      <trkpt lat="45.39138" lon="5.78175">
        <ele>1260.464286234</ele>
        <time>2015-01-28T14:17:32Z</time>
      </trkpt>
      <trkpt lat="45.3913" lon="5.7818">
        <ele>1260.464286234</ele>
        <time>2015-01-28T14:17:33Z</time>
      </trkpt>
      <trkpt lat="45.3913" lon="5.78181">
        <ele>1263.470591859</ele>
        <time>2015-01-28T14:17:42Z</time>
      </trkpt>
      <trkpt lat="45.39125" lon="5.78181">
        <ele>1263.470591859</ele>
        <time>2015-01-28T14:17:44Z</time>
      </trkpt>
      <trkpt lat="45.39125" lon="5.78182">
        <ele>1263.470591859</ele>
        <time>2015-01-28T14:18:00Z</time>
      </trkpt>
      <trkpt lat="45.39123" lon="5.78193">
        <ele>1266.257668366</ele>
        <time>2015-01-28T14:18:05Z</time>
      </trkpt>
      <trkpt lat="45.39145" lon="5.78385">
        <ele>1265.662022446</ele>
        <time>2015-01-28T14:18:40Z</time>
      </trkpt>
      <trkpt lat="45.39173" lon="5.78408">
        <ele>1264.814817908</ele>
        <time>2015-01-28T14:18:45Z</time>
      </trkpt>
      <trkpt lat="45.39181" lon="5.78415">
        <ele>1263.447571898</ele>
        <time>2015-01-28T14:18:50Z</time>
      </trkpt>
      <trkpt lat="45.39186" lon="5.7842">
        <ele>1263.447571898</ele>
        <time>2015-01-28T14:18:53Z</time>
      </trkpt>
      <trkpt lat="45.39205" lon="5.78432">
        <ele>1262.321862006</ele>
        <time>2015-01-28T14:19:00Z</time>
      </trkpt>
      <trkpt lat="45.39227" lon="5.78435">
        <ele>1261.422174302</ele>
        <time>2015-01-28T14:19:05Z</time>
      </trkpt>
      <trkpt lat="45.39241" lon="5.7843">
        <ele>1261.021798305</ele>
        <time>2015-01-28T14:19:09Z</time>
      </trkpt>
      <trkpt lat="45.39244" lon="5.78429">
        <ele>1261.021798305</ele>
        <time>2015-01-28T14:19:20Z</time>
      </trkpt>
      <trkpt lat="45.39468" lon="5.78478">
        <ele>1262.525505537</ele>
        <time>2015-01-28T14:21:00Z</time>
      </trkpt>
      <trkpt lat="45.39483" lon="5.78476">
        <ele>1265.067931114</ele>
        <time>2015-01-28T14:21:04Z</time>
      </trkpt>
      <trkpt lat="45.39768" lon="5.78152">
        <ele>1264.962209203</ele>
        <time>2015-01-28T14:23:58Z</time>
      </trkpt>
      <trkpt lat="45.39751" lon="5.78143">
        <ele>1264.276038133</ele>
        <time>2015-01-28T14:24:13Z</time>
      </trkpt>
      <trkpt lat="45.39751" lon="5.78143">
        <ele>1264.276038133</ele>
        <time>2015-01-28T14:24:18Z</time>
      </trkpt>
      <trkpt lat="45.39751" lon="5.78143">
        <ele>1264.276038133</ele>
        <time>2015-01-28T14:24:23Z</time>
      </trkpt>
      <trkpt lat="45.39751" lon="5.78143">
        <ele>1264.276038133</ele>
        <time>2015-01-28T14:24:29Z</time>
      </trkpt>
      <trkpt lat="45.39751" lon="5.78143">
        <ele>1264.276038133</ele>
        <time>2015-01-28T14:24:38Z</time>
      </trkpt>
      <trkpt lat="45.39747" lon="5.78145">
        <ele>1264.276038133</ele>
        <time>2015-01-28T14:25:00Z</time>
      </trkpt>
      <trkpt lat="45.39746" lon="5.78143">
        <ele>1264.276038133</ele>
        <time>2015-01-28T14:25:04Z</time>
      </trkpt>
      <trkpt lat="45.39451" lon="5.78079">
        <ele>1260.603582659</ele>
        <time>2015-01-28T14:27:00Z</time>
      </trkpt>
      <trkpt lat="45.39461" lon="5.78121">
        <ele>1256.479842085</ele>
        <time>2015-01-28T14:27:09Z</time>
      </trkpt>
      <trkpt lat="45.39397" lon="5.78252">
        <ele>1254.975452286</ele>
        <time>2015-01-28T14:27:55Z</time>
      </trkpt>
      <trkpt lat="45.39376" lon="5.78266">
        <ele>1255.03714382</ele>
        <time>2015-01-28T14:28:12Z</time>
      </trkpt>
      <trkpt lat="45.39243" lon="5.78337">
        <ele>1255.252291244</ele>
        <time>2015-01-28T14:29:07Z</time>
      </trkpt>
      <trkpt lat="45.39408" lon="5.78292">
        <ele>1253.446930426</ele>
        <time>2015-01-28T14:30:00Z</time>
      </trkpt>
      <trkpt lat="45.39429" lon="5.78284">
        <ele>1251.935785099</ele>
        <time>2015-01-28T14:30:04Z</time>
      </trkpt>
      <trkpt lat="45.39457" lon="5.78262">
        <ele>1251.277471669</ele>
        <time>2015-01-28T14:30:13Z</time>
      </trkpt>
      <trkpt lat="45.39727" lon="5.78133">
        <ele>1252.563601332</ele>
        <time>2015-01-28T14:32:04Z</time>
      </trkpt>
      <trkpt lat="45.39768" lon="5.78145">
        <ele>1255.935455844</ele>
        <time>2015-01-28T14:32:18Z</time>
      </trkpt>
      <trkpt lat="45.3977" lon="5.78146">
        <ele>1255.935455844</ele>
        <time>2015-01-28T14:32:26Z</time>
      </trkpt>
      <trkpt lat="45.39845" lon="5.78203">
        <ele>1251.98828125</ele>
      </trkpt>
      <trkpt lat="45.39875" lon="5.78265">
        <ele>1247.99609375</ele>
      </trkpt>
      <trkpt lat="45.39909" lon="5.7838">
        <ele>1256.185961355</ele>
        <time>2015-01-28T14:33:00Z</time>
      </trkpt>
      <trkpt lat="45.39914" lon="5.78418">
        <ele>1256.425427207</ele>
        <time>2015-01-28T14:33:07Z</time>
      </trkpt>
      <trkpt lat="45.39927" lon="5.78553">
        <ele>1254.203604732</ele>
        <time>2015-01-28T14:33:27Z</time>
      </trkpt>
      <trkpt lat="45.39971" lon="5.78599">
        <ele>1251.43637534</ele>
        <time>2015-01-28T14:33:34Z</time>
      </trkpt>
      <trkpt lat="45.39984" lon="5.78618">
        <ele>1248.74751633</ele>
        <time>2015-01-28T14:33:39Z</time>
      </trkpt>
      <trkpt lat="45.40061" lon="5.78726">
        <ele>1245.273628475</ele>
        <time>2015-01-28T14:34:04Z</time>
      </trkpt>
      <trkpt lat="45.40084" lon="5.78762">
        <ele>1241.946230381</ele>
        <time>2015-01-28T14:34:18Z</time>
      </trkpt>
      <trkpt lat="45.40132" lon="5.78842">
        <ele>1239.483826041</ele>
        <time>2015-01-28T14:34:23Z</time>
      </trkpt>
      <trkpt lat="45.40214" lon="5.78993">
        <ele>1234.22628975</ele>
        <time>2015-01-28T14:35:00Z</time>
      </trkpt>
      <trkpt lat="45.40235" lon="5.79017">
        <ele>1229.707435348</ele>
        <time>2015-01-28T14:35:08Z</time>
      </trkpt>
      <trkpt lat="45.40308" lon="5.79056">
        <ele>1225.164166671</ele>
        <time>2015-01-28T14:35:23Z</time>
      </trkpt>
      <trkpt lat="45.40344" lon="5.7905">
        <ele>1221.042246066</ele>
        <time>2015-01-28T14:35:35Z</time>
      </trkpt>
      <trkpt lat="45.40378" lon="5.79047">
        <ele>1217.753330895</ele>
        <time>2015-01-28T14:35:51Z</time>
      </trkpt>
      <trkpt lat="45.40407" lon="5.79053">
        <ele>1214.955752675</ele>
        <time>2015-01-28T14:36:00Z</time>
      </trkpt>
      <trkpt lat="45.40477" lon="5.79088">
        <ele>1211.610802947</ele>
        <time>2015-01-28T14:36:23Z</time>
      </trkpt>
      <trkpt lat="45.40563" lon="5.79098">
        <ele>1211.66015625</ele>
      </trkpt>
      <trkpt lat="45.40614" lon="5.79143">
        <ele>1215.08203125</ele>
      </trkpt>
      <trkpt lat="45.40659" lon="5.79233">
        <ele>1209.063179759</ele>
        <time>2015-01-28T14:37:23Z</time>
      </trkpt>
      <trkpt lat="45.40692" lon="5.79333">
        <ele>1207.835796455</ele>
        <time>2015-01-28T14:37:40Z</time>
      </trkpt>
      <trkpt lat="45.4068" lon="5.79372">
        <ele>1206.391684704</ele>
        <time>2015-01-28T14:37:44Z</time>
      </trkpt>
      <trkpt lat="45.40681" lon="5.79431">
        <ele>1205.468854994</ele>
        <time>2015-01-28T14:37:49Z</time>
      </trkpt>
      <trkpt lat="45.40696" lon="5.79474">
        <ele>1204.884784981</ele>
        <time>2015-01-28T14:37:54Z</time>
      </trkpt>
      <trkpt lat="45.40725" lon="5.79518">
        <ele>1204.469235033</ele>
        <time>2015-01-28T14:38:06Z</time>
      </trkpt>
      <trkpt lat="45.40858" lon="5.79673">
        <ele>1197.146491257</ele>
        <time>2015-01-28T14:38:23Z</time>
      </trkpt>
      <trkpt lat="45.40862" lon="5.79692">
        <ele>1188.341043864</ele>
        <time>2015-01-28T14:38:49Z</time>
      </trkpt>
      <trkpt lat="45.40868" lon="5.79693">
        <ele>1188.341043864</ele>
        <time>2015-01-28T14:39:06Z</time>
      </trkpt>
      <trkpt lat="45.40869" lon="5.79693">
        <ele>1188.341043864</ele>
        <time>2015-01-28T14:39:11Z</time>
      </trkpt>
      <trkpt lat="45.40868" lon="5.79693">
        <ele>1188.341043864</ele>
        <time>2015-01-28T14:39:13Z</time>
      </trkpt>
    </trkseg>
  </trk>
</gpx>